EHRD/RTM METAR and TAF weather

Enter ICAO airport designator
Station Type Date Time Source
EHRD METAR 2021/04/13 23:25 UTC NOAA

EHRD 132325Z AUTO 18001KT 9999 NCD 02/M00 Q1032 NOSIG


Station Type Date Time Source
EHRD Decoded METAR 2021/04/13 23:25 UTC NOAA

Rotterdam Airport Zestienhoven, Netherlands (EHRD) 51-57N 004-27E -4M
Apr 13, 2021 - 07:25 PM EDT / 2021.04.13 2325 UTC
Wind: from the S (180 degrees) at 1 MPH (1 KT):0
Visibility: greater than 7 mile(s):0
Temperature: 35 F (2 C)
Dew Point: 32 F (0 C)
Relative Humidity: 86%
Pressure (altimeter): 30.47 in. Hg (1032 hPa)
ob: EHRD 132325Z AUTO 18001KT 9999 NCD 02/M00 Q1032 NOSIG
cycle: 23

Station Type Date Time Source
EHRD TAF 2021/04/13 18:27 UTC NOAA

TAF EHRD 131655Z 1318/1424 VRB03KT CAVOK PROB30 1401/1406 4000 MIFG BR
BECMG 1408/1411 35010KT SCT030 PROB30
TEMPO 1410/1417 7000 -SHRA FEW025CB BKN030
BECMG 1417/1420 34004KT

Example: see airport list